This is the latest recevied weather packets stored in our database for station/object K7SKM. If no packets are shown the sender has not sent any weather packets the latest 10 day(s).
| Time | Temp. | Humidity | Pressure | Rain* | Wind** | Luminosity | Snow |
|---|---|---|---|---|---|---|---|
| 1777068051 | 17.78° C | 25% | 1021.8 hPa | 0 mm | - | 169 W/m² | - |
| 1777067751 | 17.78° C | 24% | 1022 hPa | 0 mm | - | 197 W/m² | - |
| 1777067445 | 17.22° C | 25% | 1022.1 hPa | 0 mm | - | 313 W/m² | - |
| 1777067144 | 18.33° C | 27% | 1022 hPa | 0 mm | - | 349 W/m² | - |
| 1777066840 | 17.22° C | 25% | 1022.2 hPa | 0 mm | - | 322 W/m² | - |
| 1777066535 | 18.33° C | 27% | 1022.3 hPa | 0 mm | - | 226 W/m² | - |
| 1777066231 | 17.78° C | 28% | 1022.4 hPa | 0 mm | - | 408 W/m² | - |
| 1777065930 | 17.78° C | 27% | 1022.4 hPa | 0 mm | - | 415 W/m² | - |
| 1777065627 | 18.89° C | 25% | 1022.4 hPa | 0 mm | - | 407 W/m² | - |
| 1777065322 | 17.78° C | 22% | 1022.5 hPa | 0 mm | - | 414 W/m² | - |
| 1777065017 | 18.33° C | 21% | 1022.6 hPa | 0 mm | - | 407 W/m² | - |
| 1777064714 | 18.33° C | 22% | 1022.6 hPa | 0 mm | - | 334 W/m² | - |
| 1777064410 | 18.33° C | 22% | 1022.6 hPa | 0 mm | - | 365 W/m² | - |
| 1777064101 | 17.78° C | 22% | 1022.6 hPa | 0 mm | - | 415 W/m² | - |
| 1777063801 | 18.33° C | 23% | 1022.7 hPa | 0 mm | - | 403 W/m² | - |
| 1777063496 | 18.33° C | 25% | 1022.7 hPa | 0 mm | - | 398 W/m² | - |
| 1777063192 | 18.33° C | 26% | 1022.8 hPa | 0 mm | - | 397 W/m² | - |
| 1777062889 | 18.89° C | 27% | 1022.8 hPa | 0 mm | - | 394 W/m² | - |
| 1777062585 | 18.33° C | 29% | 1022.7 hPa | 0 mm | - | 393 W/m² | - |
| 1777062284 | 17.78° C | 26% | 1023.1 hPa | 0 mm | - | 391 W/m² | - |
| 1777061982 | 17.78° C | 30% | 1023.2 hPa | 0 mm | - | 386 W/m² | - |
| 1777061678 | 17.22° C | 33% | 1023.2 hPa | 0 mm | - | 386 W/m² | - |
| 1777061374 | 18.89° C | 31% | 1023.3 hPa | 0 mm | - | 389 W/m² | - |
| 1777061074 | 18.33° C | 30% | 1023.4 hPa | 0 mm | - | 388 W/m² | - |
| 1777060770 | 17.78° C | 31% | 1023.5 hPa | 0 mm | - | 388 W/m² | - |
* Rain latest hour (hover to see other rain measurements)
** Current wind speed in m/s (hover to see current wind gust speed)